Time;durP1;ratioP1;P1;durP2;ratioP2;P2;SDS_P1;SDS_P2;PMS_P1;PMS_P2;Temp;Humidity;BMP_temperature;BMP_pressure;BME280_temperature;BME280_humidity;BME280_pressure;Samples;Min_cycle;Max_cycle;Signal;HPM_P1;HPM_P2
2023/02/13 00:01:57;;;;;;;23.33;13.13;;;;;;;-1.93;68.11;98198.78;5054099;28;20041;-62
2023/02/13 00:04:24;;;;;;;23.83;13.93;;;;;;;-1.93;68.09;98203.03;5053988;28;20049;-62
2023/02/13 00:06:51;;;;;;;24.95;13.60;;;;;;;-2.02;67.81;98206.13;5054008;28;20140;-63
2023/02/13 00:09:18;;;;;;;25.63;14.10;;;;;;;-2.12;67.85;98196.31;5053883;28;20499;-63
2023/02/13 00:11:45;;;;;;;22.98;13.32;;;;;;;-2.13;67.86;98208.28;5053968;28;20440;-62
2023/02/13 00:14:12;;;;;;;22.23;11.95;;;;;;;-2.23;67.69;98209.59;5053750;28;20081;-61
2023/02/13 00:16:39;;;;;;;20.05;12.07;;;;;;;-2.39;67.87;98215.81;5053816;28;20052;-61
2023/02/13 00:19:08;;;;;;;20.70;11.82;;;;;;;-2.49;68.18;98211.13;5053866;28;20041;-61
2023/02/13 00:21:35;;;;;;;20.15;11.95;;;;;;;-2.61;68.54;98214.94;5053595;28;20084;-63
2023/02/13 00:24:03;;;;;;;22.95;12.82;;;;;;;-2.67;68.65;98213.00;5053731;28;20548;-62
2023/02/13 00:26:30;;;;;;;19.40;11.68;;;;;;;-2.68;68.55;98216.34;5053618;28;20143;-63
2023/02/13 00:28:57;;;;;;;21.38;12.27;;;;;;;-2.71;68.41;98216.22;5053570;28;20089;-61
2023/02/13 00:31:25;;;;;;;22.75;11.90;;;;;;;-2.70;68.55;98209.44;5053559;28;20499;-61
2023/02/13 00:33:52;;;;;;;21.55;11.80;;;;;;;-2.73;68.65;98215.31;5053472;28;20488;-63
2023/02/13 00:36:23;;;;;;;22.98;12.00;;;;;;;-2.75;68.55;98214.34;5053625;28;20045;-62
2023/02/13 00:38:50;;;;;;;21.80;12.10;;;;;;;-2.80;68.77;98224.41;5053484;28;20056;-63
2023/02/13 00:41:18;;;;;;;21.98;11.43;;;;;;;-2.83;68.75;98218.28;5053349;28;20052;-63
2023/02/13 00:43:46;;;;;;;23.77;11.98;;;;;;;-2.89;68.93;98220.59;5053621;28;20045;-62
2023/02/13 00:46:13;;;;;;;19.15;10.63;;;;;;;-2.96;69.04;98216.88;5053273;28;20053;-61
2023/02/13 00:48:40;;;;;;;30.88;11.98;;;;;;;-2.99;69.42;98216.75;5053097;28;20051;-62
2023/02/13 00:51:11;;;;;;;22.17;12.50;;;;;;;-2.99;69.21;98219.31;5053252;28;20045;-61
2023/02/13 00:53:40;;;;;;;22.30;11.48;;;;;;;-2.98;69.20;98219.38;5053248;28;20123;-62
2023/02/13 00:56:08;;;;;;;20.17;10.93;;;;;;;-3.07;69.54;98214.72;5053136;28;20045;-61
2023/02/13 00:58:35;;;;;;;22.35;12.25;;;;;;;-3.14;69.77;98214.41;5053156;28;20048;-62
2023/02/13 01:01:02;;;;;;;21.30;11.27;;;;;;;-3.21;70.10;98224.41;5053023;28;20387;-63
2023/02/13 01:03:29;;;;;;;22.50;12.10;;;;;;;-3.47;70.74;98220.66;5053345;28;20045;-63
2023/02/13 01:05:57;;;;;;;21.67;10.95;;;;;;;-3.62;71.19;98215.72;5053093;28;20491;-63
2023/02/13 01:08:31;;;;;;;20.92;11.63;;;;;;;-3.79;71.95;98223.53;5052982;28;20048;-61
2023/02/13 01:11:05;;;;;;;21.77;12.43;;;;;;;-3.94;72.22;98216.88;5052958;28;20044;-63
2023/02/13 01:13:33;;;;;;;24.33;12.13;;;;;;;-4.05;72.98;98223.19;5052730;28;20061;-62
2023/02/13 01:16:01;;;;;;;27.40;10.85;;;;;;;-4.04;72.96;98222.38;5052968;28;20141;-61
2023/02/13 01:18:29;;;;;;;22.45;11.73;;;;;;;-4.06;72.72;98221.44;5052894;28;20049;-61
2023/02/13 01:20:59;;;;;;;24.00;12.25;;;;;;;-4.06;73.04;98216.34;5052855;28;20056;-63
2023/02/13 01:23:36;;;;;;;20.42;11.85;;;;;;;-4.08;72.79;98216.25;5052907;28;20060;-63
2023/02/13 01:26:06;;;;;;;22.83;11.77;;;;;;;-4.14;72.98;98213.41;5052829;28;20081;-62
2023/02/13 01:28:34;;;;;;;;;;;;;;;-4.20;73.66;98218.22;5053214;28;20519;-64
2023/02/13 01:31:02;;;;;;;21.02;11.45;;;;;;;-4.28;74.06;98227.22;5052724;28;20327;-63
2023/02/13 01:33:29;;;;;;;19.73;11.38;;;;;;;-4.32;73.88;98221.97;5052775;28;20081;-61
2023/02/13 01:35:59;;;;;;;20.13;11.95;;;;;;;-4.20;73.67;98228.47;5052709;28;20103;-64
2023/02/13 01:38:26;;;;;;;18.17;10.00;;;;;;;-4.08;73.67;98235.84;5052774;28;20479;-62
2023/02/13 01:40:56;;;;;;;27.08;13.60;;;;;;;-4.00;73.74;98237.09;5052792;28;20108;-61
2023/02/13 01:43:43;;;;;;;25.02;12.93;;;;;;;-3.93;73.51;98243.34;5052772;28;20045;-61
2023/02/13 01:46:13;;;;;;;23.60;12.45;;;;;;;-3.88;73.40;98246.13;5052734;28;20124;-64
2023/02/13 01:48:44;;;;;;;26.67;11.80;;;;;;;-3.90;72.82;98247.72;5052692;28;20049;-61
2023/02/13 01:51:15;;;;;;;22.75;12.10;;;;;;;-3.98;72.88;98245.69;5052667;28;20294;-64
2023/02/13 01:53:45;;;;;;;20.15;11.50;;;;;;;-4.20;73.41;98244.69;5052604;28;20056;-64
2023/02/13 01:56:18;;;;;;;21.27;12.63;;;;;;;-4.28;74.32;98242.56;5052624;28;20048;-64
2023/02/13 01:58:52;;;;;;;22.70;13.05;;;;;;;-4.34;74.47;98240.56;5053026;28;20049;-65
2023/02/13 02:01:21;;;;;;;21.63;11.45;;;;;;;-4.43;74.94;98233.34;5056304;28;20063;-62
2023/02/13 02:03:52;;;;;;;21.95;11.32;;;;;;;-4.50;74.69;98237.28;5056275;28;20079;-64
2023/02/13 02:06:23;;;;;;;21.30;12.23;;;;;;;-4.65;74.93;98239.06;5056304;28;20065;-63
2023/02/13 02:08:54;;;;;;;20.65;12.20;;;;;;;-4.73;75.58;98231.06;5056195;28;20471;-64
2023/02/13 02:11:26;;;;;;;22.95;12.85;;;;;;;-4.74;76.22;98232.72;5056419;28;20095;-62
2023/02/13 02:13:56;;;;;;;23.17;12.80;;;;;;;-4.72;77.01;98236.19;5056130;28;20084;-64
2023/02/13 02:16:25;;;;;;;31.20;13.23;;;;;;;-4.63;77.61;98243.47;5056185;28;20041;-64
2023/02/13 02:18:52;;;;;;;24.60;13.77;;;;;;;-4.58;78.04;98252.22;5056172;28;20049;-63
2023/02/13 02:21:56;;;;;;;28.02;15.02;;;;;;;-4.54;78.41;98243.06;5055902;28;20566;-63
2023/02/13 02:24:52;;;;;;;24.45;12.88;;;;;;;-4.46;77.68;98244.28;5055968;28;20056;-63
2023/02/13 02:27:51;;;;;;;24.67;12.88;;;;;;;-4.50;77.26;98242.38;5054940;28;20048;-64
2023/02/13 02:30:50;;;;;;;26.45;12.20;;;;;;;-4.69;77.16;98253.38;5039355;28;20119;-62
2023/02/13 02:33:29;;;;;;;19.15;10.77;;;;;;;-4.79;77.05;98251.16;5055844;28;20084;-65
2023/02/13 02:36:11;;;;;;;27.38;12.27;;;;;;;-4.85;77.55;98232.16;5055868;28;20122;-64
2023/02/13 02:38:55;;;;;;;23.80;12.45;;;;;;;-4.82;77.79;98247.66;5055741;28;20049;-62
2023/02/13 02:41:44;;;;;;;23.60;12.82;;;;;;;-4.76;77.98;98241.97;5055819;28;20146;-61
2023/02/13 02:44:25;;;;;;;22.65;13.15;;;;;;;-4.85;77.38;98246.63;5055609;28;20044;-62
2023/02/13 02:50:00;;;;;;;22.23;11.88;;;;;;;-4.77;78.22;98244.44;5055540;28;20110;-63
2023/02/13 02:52:40;;;;;;;26.77;12.65;;;;;;;-4.78;77.68;98242.69;5055438;28;20495;-64
2023/02/13 02:55:16;;;;;;;33.72;14.20;;;;;;;-4.83;78.12;98245.91;5055397;28;20095;-62
2023/02/13 03:06:13;;;;;;;23.75;12.70;;;;;;;-4.84;77.11;98248.38;5055285;28;20060;-61
2023/02/13 03:14:18;;;;;;;25.05;13.27;;;;;;;-4.82;76.66;98254.41;5054949;28;20091;-64
2023/02/13 03:22:41;;;;;;;22.88;12.60;;;;;;;-4.80;76.42;98245.16;5055223;28;20052;-64
2023/02/13 03:25:29;;;;;;;31.02;14.07;;;;;;;-4.74;76.13;98252.25;5054779;28;20076;-64
2023/02/13 03:30:57;;;;;;;22.83;13.13;;;;;;;-4.89;76.32;98255.81;5054804;28;20176;-62
2023/02/13 03:33:35;;;;;;;31.65;14.32;;;;;;;-4.84;76.17;98268.81;5054770;28;20197;-64
2023/02/13 03:39:05;;;;;;;29.33;14.30;;;;;;;-4.83;75.31;98263.78;5054712;28;20056;-62
2023/02/13 03:41:40;;;;;;;29.25;15.48;;;;;;;-4.82;74.94;98270.63;5054479;28;20107;-65
2023/02/13 03:44:13;;;;;;;24.40;13.50;;;;;;;-4.91;74.94;98266.75;5054601;28;20107;-65
2023/02/13 03:46:44;;;;;;;26.85;13.30;;;;;;;-5.04;75.15;98275.44;5054496;28;20049;-62
2023/02/13 03:52:07;;;;;;;26.90;14.30;;;;;;;-5.18;74.58;98273.03;5054410;28;20055;-65
2023/02/13 04:00:18;;;;;;;27.02;14.68;;;;;;;-5.44;75.30;98264.91;5054407;28;20052;-61
2023/02/13 04:02:54;;;;;;;28.25;14.57;;;;;;;-5.48;75.46;98263.84;5054080;28;20049;-65
2023/02/13 04:05:25;;;;;;;25.08;14.27;;;;;;;-5.57;76.22;98260.81;5054097;28;20487;-62
2023/02/13 04:07:53;;;;;;;28.45;13.50;;;;;;;-5.64;76.42;98263.84;5054025;28;20094;-61
2023/02/13 04:10:25;;;;;;;29.70;15.30;;;;;;;-5.71;77.37;98262.63;5054049;28;20103;-62
2023/02/13 04:13:01;;;;;;;27.02;14.88;;;;;;;-5.69;77.32;98263.56;5053893;28;20045;-63
2023/02/13 04:15:33;;;;;;;26.58;13.93;;;;;;;-5.72;77.50;98259.19;5053951;28;20120;-62
2023/02/13 04:18:08;;;;;;;27.05;14.02;;;;;;;-5.67;77.84;98266.22;5053863;28;20049;-65
2023/02/13 04:20:35;;;;;;;28.65;14.48;;;;;;;-5.59;77.65;98275.16;5053759;28;20053;-62
2023/02/13 04:23:08;;;;;;;28.23;15.20;;;;;;;-5.54;77.38;98280.53;5053096;28;20099;-62
2023/02/13 04:25:39;;;;;;;34.08;15.98;;;;;;;-5.61;76.87;98277.63;5053632;28;20483;-63
2023/02/13 04:28:07;;;;;;;28.23;15.25;;;;;;;-5.72;78.03;98286.41;5053488;28;20045;-63
2023/02/13 04:30:34;;;;;;;30.40;16.05;;;;;;;-5.63;78.40;98278.34;5053822;28;20169;-63
2023/02/13 04:33:02;;;;;;;28.88;13.85;;;;;;;-5.63;77.99;98283.47;5053562;28;20052;-63
2023/02/13 04:35:29;;;;;;;28.75;15.48;;;;;;;-5.62;77.60;98288.66;5053495;28;20047;-61
2023/02/13 04:37:57;;;;;;;31.75;14.77;;;;;;;-5.60;77.09;98294.69;5053594;28;20507;-62
2023/02/13 04:40:24;;;;;;;33.33;15.30;;;;;;;-5.56;76.71;98282.09;5053414;28;20085;-64
2023/02/13 04:42:53;;;;;;;28.13;14.52;;;;;;;-5.54;76.72;98291.59;5053506;28;20057;-61
2023/02/13 04:45:20;;;;;;;24.02;13.02;;;;;;;-5.50;76.29;98297.75;5053470;28;20056;-64
2023/02/13 04:47:51;;;;;;;31.50;15.70;;;;;;;-5.60;76.25;98294.69;5053215;28;20132;-65
2023/02/13 04:50:19;;;;;;;24.55;13.68;;;;;;;-5.60;76.65;98297.25;5053220;28;20051;-65
2023/02/13 04:52:47;;;;;;;30.77;15.45;;;;;;;-5.65;76.81;98306.34;5053251;28;20415;-61
2023/02/13 04:55:14;;;;;;;29.67;15.32;;;;;;;-5.73;76.92;98305.00;5053207;28;20106;-63
2023/02/13 04:57:42;;;;;;;33.25;15.82;;;;;;;-5.67;77.07;98291.72;5053165;28;20049;-61
2023/02/13 05:00:12;;;;;;;33.00;14.65;;;;;;;-5.65;77.22;98305.44;5053109;28;20136;-64
2023/02/13 05:02:40;;;;;;;28.67;14.50;;;;;;;-5.63;76.70;98299.63;5053032;28;20052;-63
2023/02/13 05:05:07;;;;;;;27.23;15.05;;;;;;;-5.63;76.38;98309.81;5053101;28;20059;-63
2023/02/13 05:07:35;;;;;;;26.55;14.93;;;;;;;-5.75;76.91;98310.03;5053008;28;20422;-64
2023/02/13 05:10:04;;;;;;;26.90;14.63;;;;;;;-5.77;77.50;98305.66;5053043;28;20095;-66
2023/02/13 05:12:31;;;;;;;30.35;15.25;;;;;;;-5.73;77.45;98305.91;5053060;28;20095;-62
2023/02/13 05:14:59;;;;;;;27.98;14.80;;;;;;;-5.66;77.13;98307.09;5053057;28;20049;-65
2023/02/13 05:17:28;;;;;;;31.58;15.18;;;;;;;-5.63;76.53;98317.47;5052951;28;20049;-64
2023/02/13 05:19:56;;;;;;;34.13;15.48;;;;;;;-5.69;76.67;98317.13;5052987;28;20132;-61
2023/02/13 05:25:08;;;;;;;26.67;14.50;;;;;;;-5.73;76.97;98317.78;5052912;28;20060;-61
2023/02/13 05:27:35;;;;;;;26.10;15.38;;;;;;;-5.62;76.16;98331.13;5052919;28;20488;-63
2023/02/13 05:30:01;;;;;;;26.95;14.65;;;;;;;-5.60;76.66;98321.91;5052850;28;20053;-63
2023/02/13 05:32:30;;;;;;;28.23;14.77;;;;;;;-5.64;76.74;98333.59;5052777;28;20095;-65
2023/02/13 05:34:57;;;;;;;28.75;14.82;;;;;;;-5.61;76.63;98333.75;5057175;28;20091;-61
2023/02/13 05:37:25;;;;;;;26.17;14.57;;;;;;;-5.63;76.90;98329.38;5056866;28;20059;-62
2023/02/13 05:39:52;;;;;;;28.08;14.48;;;;;;;-5.61;76.60;98332.88;5056801;28;20045;-62
2023/02/13 05:42:20;;;;;;;31.52;14.70;;;;;;;-5.57;76.59;98332.22;5056775;28;20057;-63
2023/02/13 05:44:48;;;;;;;28.98;14.27;;;;;;;-5.54;76.38;98334.94;5056911;28;20396;-62
2023/02/13 05:47:16;;;;;;;31.00;15.82;;;;;;;-5.53;76.79;98328.19;5056707;28;20045;-62
2023/02/13 05:49:46;;;;;;;28.73;15.55;;;;;;;-5.52;76.61;98337.59;5056665;28;20048;-64
2023/02/13 05:52:14;;;;;;;35.38;15.52;;;;;;;-5.54;77.29;98334.94;5056579;28;20510;-61
2023/02/13 05:54:41;;;;;;;29.77;15.82;;;;;;;-5.49;77.71;98332.66;5056561;28;20049;-63
2023/02/13 05:57:10;;;;;;;33.20;17.00;;;;;;;-5.16;78.94;98329.28;5056481;28;20045;-61
2023/02/13 05:59:38;;;;;;;33.28;16.20;;;;;;;-4.19;77.74;98335.91;5056419;28;20052;-65
2023/02/13 06:02:05;;;;;;;29.52;13.65;;;;;;;-2.85;74.12;98330.06;5056371;28;20049;-62
2023/02/13 06:04:32;;;;;;;21.77;11.50;;;;;;;-1.53;67.78;98332.91;5056434;28;20052;-63
2023/02/13 06:07:00;;;;;;;23.65;12.63;;;;;;;-0.24;63.91;98333.19;5056355;28;20065;-65
2023/02/13 06:09:28;;;;;;;22.42;12.68;;;;;;;0.92;59.38;98327.38;5056266;28;20060;-63
2023/02/13 06:11:55;;;;;;;23.13;11.45;;;;;;;2.04;55.57;98323.44;5056174;28;20381;-65
2023/02/13 06:14:22;;;;;;;20.63;10.75;;;;;;;3.04;52.38;98329.13;5056052;28;20053;-65
2023/02/13 06:16:49;;;;;;;16.38;10.10;;;;;;;4.04;50.01;98326.66;5056302;28;20059;-64
2023/02/13 06:19:16;;;;;;;16.23;10.85;;;;;;;5.08;47.49;98329.03;5056097;28;20049;-64
2023/02/13 06:21:43;;;;;;;18.70;11.75;;;;;;;6.10;45.03;98328.41;5056041;28;20111;-63
2023/02/13 06:24:12;;;;;;;17.20;10.60;;;;;;;6.90;42.09;98323.75;5056015;28;20124;-66
2023/02/13 06:26:40;;;;;;;16.95;10.23;;;;;;;7.32;40.64;98326.56;5055937;28;20045;-64
2023/02/13 06:29:08;;;;;;;14.65;10.68;;;;;;;7.77;39.28;98329.25;5055927;28;20044;-64
2023/02/13 06:31:35;;;;;;;16.42;10.43;;;;;;;8.47;39.25;98325.81;5056180;28;20168;-64
2023/02/13 06:34:03;;;;;;;20.13;11.55;;;;;;;9.33;37.56;98323.03;5055813;28;20041;-64
2023/02/13 06:36:30;;;;;;;17.92;11.95;;;;;;;9.88;36.51;98318.38;5055722;28;20084;-66
2023/02/13 06:38:58;;;;;;;16.88;11.30;;;;;;;10.57;35.55;98313.44;5055773;28;20048;-63
2023/02/13 06:41:26;;;;;;;19.30;10.63;;;;;;;11.32;34.40;98319.66;5055570;28;20055;-63
2023/02/13 06:43:53;;;;;;;18.40;10.98;;;;;;;11.76;33.53;98322.53;5055865;28;20053;-63
2023/02/13 06:46:21;;;;;;;15.05;10.35;;;;;;;12.32;32.98;98313.84;5055021;28;20128;-64
2023/02/13 06:48:48;;;;;;;17.08;11.32;;;;;;;13.02;32.20;98323.09;5055503;28;20128;-65
2023/02/13 06:51:15;;;;;;;13.50;10.13;;;;;;;13.50;31.44;98326.56;5055544;28;20406;-66
2023/02/13 06:53:42;;;;;;;12.75;9.50;;;;;;;13.95;30.49;98326.44;5055489;28;20072;-64
2023/02/13 06:56:10;;;;;;;13.18;9.70;;;;;;;14.32;30.10;98322.03;5055450;28;20061;-66
2023/02/13 06:58:39;;;;;;;13.98;10.68;;;;;;;14.40;29.59;98317.47;5055417;28;20049;-62
2023/02/13 07:01:06;;;;;;;17.77;11.77;;;;;;;14.03;30.05;98324.50;5055294;28;20045;-64
2023/02/13 07:03:33;;;;;;;20.25;13.77;;;;;;;14.19;29.96;98317.09;5055132;28;20139;-62
2023/02/13 07:06:01;;;;;;;17.35;13.10;;;;;;;14.28;29.57;98326.53;5055195;28;20068;-65
2023/02/13 07:08:28;;;;;;;17.05;12.35;;;;;;;15.06;28.39;98321.06;5055181;28;20049;-66
2023/02/13 07:10:55;;;;;;;17.85;12.38;;;;;;;15.63;27.57;98321.19;5055201;28;20049;-65
2023/02/13 07:13:23;;;;;;;19.15;12.68;;;;;;;16.10;26.64;98320.63;5054919;28;20053;-63
2023/02/13 07:15:52;;;;;;;19.33;13.77;;;;;;;16.41;26.06;98318.78;5054991;28;20047;-65
2023/02/13 07:18:19;;;;;;;18.63;12.70;;;;;;;16.90;25.71;98317.97;5054985;28;20041;-64
2023/02/13 07:20:46;;;;;;;16.33;13.05;;;;;;;16.99;25.46;98320.31;5054910;28;20049;-65
2023/02/13 07:23:15;;;;;;;17.05;12.02;;;;;;;17.28;24.68;98317.53;5054809;28;20510;-67
2023/02/13 07:25:43;;;;;;;16.98;12.85;;;;;;;17.19;25.16;98321.41;5054949;28;20384;-65
2023/02/13 07:28:12;;;;;;;19.38;13.23;;;;;;;17.78;24.89;98324.47;5054690;28;20045;-64
2023/02/13 07:30:40;;;;;;;18.00;13.63;;;;;;;18.23;24.43;98323.63;5054468;28;20415;-66
2023/02/13 07:33:10;;;;;;;16.25;12.25;;;;;;;18.15;24.45;98321.31;5054668;28;20049;-66
2023/02/13 07:35:39;;;;;;;16.98;13.18;;;;;;;18.59;24.37;98330.97;5054680;28;20085;-67
2023/02/13 07:38:06;;;;;;;15.98;12.43;;;;;;;18.60;24.27;98331.84;5054594;28;20499;-66
2023/02/13 07:40:34;;;;;;;17.65;13.40;;;;;;;18.17;24.43;98320.31;5054582;28;20056;-63
2023/02/13 07:43:01;;;;;;;16.83;13.43;;;;;;;18.28;23.97;98329.59;5054653;28;20045;-64
2023/02/13 07:45:29;;;;;;;14.85;12.52;;;;;;;18.55;23.69;98329.38;5054575;28;20103;-65
2023/02/13 07:47:56;;;;;;;15.65;13.13;;;;;;;19.21;22.90;98330.13;5054807;28;20052;-63
2023/02/13 07:50:25;;;;;;;17.52;13.95;;;;;;;19.73;22.00;98325.09;5054450;28;20106;-66
2023/02/13 07:52:55;;;;;;;15.90;13.15;;;;;;;20.28;21.78;98318.09;5054371;28;20053;-65
2023/02/13 07:55:22;;;;;;;12.98;11.57;;;;;;;20.10;21.58;98323.38;5054455;28;20045;-66
2023/02/13 07:57:50;;;;;;;16.45;12.95;;;;;;;19.79;22.10;98320.38;5053329;28;20510;-64
2023/02/13 08:00:18;;;;;;;18.35;13.30;;;;;;;20.10;22.00;98315.41;5054188;28;20045;-64
2023/02/13 08:02:45;;;;;;;14.80;12.48;;;;;;;20.01;21.88;98316.72;5054126;28;20049;-65
2023/02/13 08:05:13;;;;;;;16.70;11.73;;;;;;;19.11;22.50;98311.09;5054053;28;20091;-65
2023/02/13 08:07:41;;;;;;;15.90;12.80;;;;;;;18.61;23.67;98307.91;5054043;28;20497;-63
2023/02/13 08:12:54;;;;;;;20.13;13.00;;;;;;;17.65;24.45;98309.97;5054137;28;20059;-63
2023/02/13 08:15:22;;;;;;;15.98;13.00;;;;;;;17.07;25.18;98311.25;5053751;28;20055;-65
2023/02/13 08:17:49;;;;;;;16.45;12.73;;;;;;;16.40;26.47;98296.75;5053864;28;20091;-64
2023/02/13 08:20:16;;;;;;;17.25;12.32;;;;;;;16.11;26.84;98293.34;5053816;28;20495;-63
2023/02/13 08:22:45;;;;;;;17.98;12.73;;;;;;;14.82;27.98;98295.34;5053723;28;20052;-65
2023/02/13 08:25:12;;;;;;;16.90;13.00;;;;;;;14.03;29.47;98300.81;5053816;28;20045;-65
2023/02/13 08:27:40;;;;;;;17.27;13.68;;;;;;;13.35;30.91;98296.16;5053720;28;20090;-63
2023/02/13 08:30:09;;;;;;;19.80;14.02;;;;;;;13.74;30.08;98289.22;5053614;28;20052;-63
2023/02/13 08:32:36;;;;;;;20.15;13.45;;;;;;;13.10;31.04;98286.13;5053613;28;20072;-64
2023/02/13 08:35:03;;;;;;;19.10;12.75;;;;;;;12.33;33.00;98284.09;5053599;28;20103;-64
2023/02/13 08:37:30;;;;;;;19.58;13.63;;;;;;;11.63;34.10;98287.78;5053448;28;20076;-65
2023/02/13 08:39:58;;;;;;;19.08;13.30;;;;;;;10.95;34.80;98292.13;5053677;28;20044;-62
2023/02/13 08:42:25;;;;;;;20.08;14.52;;;;;;;10.82;35.11;98287.03;5053531;28;20049;-63
2023/02/13 08:44:53;;;;;;;17.90;13.38;;;;;;;10.44;36.28;98288.25;5053400;28;20568;-63
2023/02/13 08:47:20;;;;;;;18.65;12.73;;;;;;;10.35;36.17;98284.84;5053379;28;20118;-63
2023/02/13 08:49:47;;;;;;;23.33;13.57;;;;;;;9.85;37.71;98287.00;5053315;28;20045;-64
2023/02/13 08:52:14;;;;;;;23.40;13.32;;;;;;;9.56;38.23;98291.56;5053268;28;20053;-64
2023/02/13 08:54:41;;;;;;;19.80;13.88;;;;;;;9.14;38.50;98289.16;5053241;28;20052;-64
2023/02/13 08:57:10;;;;;;;22.55;13.05;;;;;;;8.53;40.13;98289.31;5053256;28;20486;-62
2023/02/13 08:59:37;;;;;;;19.17;13.18;;;;;;;8.16;40.59;98284.97;5053270;28;20156;-63
2023/02/13 09:02:04;;;;;;;19.67;13.77;;;;;;;7.88;41.09;98284.97;5053208;28;20498;-64
2023/02/13 09:04:31;;;;;;;20.13;12.98;;;;;;;8.03;41.40;98278.03;5053195;28;20041;-63
2023/02/13 09:06:58;;;;;;;18.33;12.77;;;;;;;7.83;42.61;98278.91;5053174;28;20060;-64
2023/02/13 09:09:26;;;;;;;17.85;11.38;;;;;;;7.83;41.38;98282.38;5052967;28;20049;-63
2023/02/13 09:11:56;;;;;;;15.30;11.40;;;;;;;7.98;42.14;98283.25;5052988;28;20132;-64
2023/02/13 09:14:25;;;;;;;18.85;11.77;;;;;;;8.14;41.02;98272.81;5053025;28;20049;-65
2023/02/13 09:16:52;;;;;;;20.13;11.35;;;;;;;8.40;40.95;98272.78;5052995;28;20053;-65
2023/02/13 09:19:19;;;;;;;17.50;11.68;;;;;;;8.52;40.93;98271.91;5052940;28;20045;-63
2023/02/13 09:21:46;;;;;;;19.17;12.07;;;;;;;8.57;40.68;98271.91;5052995;28;20474;-64
2023/02/13 09:24:13;;;;;;;17.75;12.38;;;;;;;8.43;41.43;98264.97;5052861;28;20135;-62
2023/02/13 09:26:40;;;;;;;18.67;11.50;;;;;;;8.51;41.39;98271.91;5053007;28;20056;-63
2023/02/13 09:29:07;;;;;;;17.60;11.60;;;;;;;8.55;41.13;98263.25;5053321;28;20087;-63
2023/02/13 09:31:35;;;;;;;16.73;11.27;;;;;;;8.44;41.30;98265.84;5053002;28;20049;-63
2023/02/13 09:34:03;;;;;;;15.52;10.95;;;;;;;8.14;41.81;98254.56;5052908;28;20135;-64
2023/02/13 09:36:30;;;;;;;18.35;11.55;;;;;;;8.43;41.12;98251.06;5052771;28;20053;-64
2023/02/13 09:38:58;;;;;;;16.20;11.43;;;;;;;8.51;42.30;98243.19;5052797;28;20136;-63
2023/02/13 09:41:28;;;;;;;16.98;11.10;;;;;;;8.41;41.77;98242.38;5052776;28;20102;-65
2023/02/13 09:44:00;;;;;;;18.48;11.98;;;;;;;8.18;41.07;98240.66;5052736;28;20049;-63
2023/02/13 09:46:30;;;;;;;17.17;11.35;;;;;;;8.08;42.63;98235.47;5052674;28;20049;-63
2023/02/13 09:49:05;;;;;;;17.67;11.35;;;;;;;8.19;41.33;98231.97;5052775;28;20144;-63
2023/02/13 09:51:32;;;;;;;18.38;11.55;;;;;;;8.13;42.52;98230.22;5052696;28;20049;-64
2023/02/13 09:54:02;;;;;;;14.40;10.25;;;;;;;8.11;42.18;98220.69;5052626;28;20060;-64
2023/02/13 09:56:40;;;;;;;13.85;9.88;;;;;;;8.07;41.37;98220.69;5052827;28;20079;-63
2023/02/13 09:59:18;;;;;;;14.02;9.65;;;;;;;7.96;42.07;98217.22;5052849;28;20099;-64
2023/02/13 10:01:49;;;;;;;18.92;10.63;;;;;;;7.79;42.40;98215.50;5052517;28;20041;-64
2023/02/13 10:04:30;;;;;;;16.52;11.00;;;;;;;7.86;41.39;98216.38;5052436;28;20063;-62
2023/02/13 10:07:12;;;;;;;16.30;10.95;;;;;;;7.68;43.45;98202.44;5052458;28;20045;-64
2023/02/13 10:09:47;;;;;;;14.00;9.55;;;;;;;7.77;43.12;98203.34;5052454;28;20056;-63
2023/02/13 10:12:26;;;;;;;14.45;9.75;;;;;;;7.58;42.06;98199.00;5052574;28;20048;-64
2023/02/13 10:15:04;;;;;;;10.15;6.93;;;;;;;7.51;42.21;98196.38;5052257;28;20052;-64
2023/02/13 10:17:35;;;;;;;19.67;10.70;;;;;;;7.17;42.82;98187.63;5052462;28;20049;-62
2023/02/13 10:20:07;;;;;;;13.25;8.82;;;;;;;7.14;44.13;98187.66;5053304;28;20045;-64
2023/02/13 10:22:38;;;;;;;13.98;9.52;;;;;;;7.42;43.06;98179.00;5055995;28;20049;-64
2023/02/13 10:25:12;;;;;;;13.32;8.77;;;;;;;7.55;42.95;98180.75;5056310;28;20040;-62
2023/02/13 10:27:43;;;;;;;13.52;8.98;;;;;;;7.71;41.34;98179.00;5055831;28;20107;-63
2023/02/13 10:30:21;;;;;;;13.27;9.38;;;;;;;7.56;42.10;98171.22;5055971;28;20048;-63
2023/02/13 10:33:10;;;;;;;13.18;9.25;;;;;;;7.64;43.33;98163.38;5056135;28;20059;-62
2023/02/13 10:35:39;;;;;;;16.02;8.80;;;;;;;7.86;42.37;98160.78;5055821;28;20590;-63
2023/02/13 10:38:15;;;;;;;16.40;9.10;;;;;;;7.91;42.58;98159.00;5055790;28;20087;-64
2023/02/13 10:40:55;;;;;;;13.85;9.65;;;;;;;7.87;41.13;98163.38;5056127;28;20107;-63
2023/02/13 10:43:27;;;;;;;11.40;8.40;;;;;;;7.81;42.10;98151.22;5055560;28;20140;-62
2023/02/13 10:46:10;;;;;;;18.05;8.38;;;;;;;7.80;42.40;98156.44;5055645;28;20137;-63
2023/02/13 10:49:07;;;;;;;12.60;8.68;;;;;;;7.77;42.01;98149.47;5055545;28;20052;-62
2023/02/13 10:51:42;;;;;;;13.80;9.50;;;;;;;7.77;42.71;98153.84;5055598;28;20096;-62
2023/02/13 10:54:26;;;;;;;13.13;8.77;;;;;;;7.96;41.88;98145.13;5055525;28;20076;-64
2023/02/13 10:57:02;;;;;;;12.07;8.38;;;;;;;8.10;41.39;98144.25;5055404;28;20466;-63
2023/02/13 10:59:42;;;;;;;15.38;9.38;;;;;;;8.03;40.64;98139.88;5055314;28;20100;-63
2023/02/13 11:02:25;;;;;;;14.35;9.60;;;;;;;8.15;41.31;98131.16;5055352;28;20053;-63
2023/02/13 11:04:57;;;;;;;11.70;8.38;;;;;;;8.19;41.65;98131.16;5055140;28;20048;-63
2023/02/13 11:07:27;;;;;;;11.95;8.18;;;;;;;8.34;41.88;98139.81;5055175;28;20487;-63
2023/02/13 11:09:59;;;;;;;14.33;9.37;;;;;;;8.12;41.76;98126.84;5055231;28;20076;-63
2023/02/13 11:12:29;;;;;;;14.68;9.52;;;;;;;8.13;40.46;98125.94;5055405;28;20640;-63
2023/02/13 11:14:57;;;;;;;12.80;8.60;;;;;;;8.13;40.98;98125.94;5054887;28;20115;-63
2023/02/13 11:17:26;;;;;;;12.80;8.40;;;;;;;8.11;40.95;98119.03;5055125;28;20106;-61
2023/02/13 11:19:56;;;;;;;14.57;9.82;;;;;;;7.97;41.64;98118.19;5055080;28;20095;-63
2023/02/13 11:22:33;;;;;;;14.27;9.65;;;;;;;8.19;41.69;98118.13;5054932;28;20106;-63
2023/02/13 11:25:03;;;;;;;16.40;9.93;;;;;;;8.25;41.59;98119.00;5054855;28;20399;-64
2023/02/13 11:27:33;;;;;;;13.35;8.88;;;;;;;8.39;40.98;98114.56;5054847;28;20132;-63
2023/02/13 11:30:04;;;;;;;13.07;9.15;;;;;;;8.42;40.57;98101.53;5054779;28;20048;-63
2023/02/13 11:32:32;;;;;;;13.10;9.37;;;;;;;8.46;39.67;98094.56;5054615;28;20041;-63
2023/02/13 11:35:26;;;;;;;12.07;9.20;;;;;;;8.51;40.96;98094.53;5054711;28;20791;-63
2023/02/13 11:38:13;;;;;;;12.80;8.85;;;;;;;8.55;40.02;98094.53;5054933;28;20045;-63
2023/02/13 11:40:43;;;;;;;11.75;7.97;;;;;;;8.29;39.48;98090.28;5054675;28;20076;-63
2023/02/13 11:43:19;;;;;;;14.93;9.05;;;;;;;8.28;40.65;98079.88;5054552;28;20502;-63
2023/02/13 11:45:46;;;;;;;16.13;9.52;;;;;;;8.21;40.24;98082.50;5054508;28;20041;-62
2023/02/13 11:48:22;;;;;;;12.30;8.38;;;;;;;8.09;40.76;98077.31;5054481;28;20455;-64
2023/02/13 11:50:54;;;;;;;13.73;8.98;;;;;;;8.15;40.67;98073.81;5054426;28;20049;-62
2023/02/13 11:53:25;;;;;;;12.43;8.13;;;;;;;8.21;40.47;98065.97;5054386;28;20049;-64
2023/02/13 11:56:08;;;;;;;12.43;9.23;;;;;;;8.26;40.53;98065.97;5054400;28;20045;-63
2023/02/13 11:58:36;;;;;;;15.55;8.73;;;;;;;8.11;40.69;98062.56;5054208;28;20041;-64
2023/02/13 12:01:25;;;;;;;12.70;9.55;;;;;;;8.02;41.70;98060.84;5054244;28;20045;-64
2023/02/13 12:04:06;;;;;;;13.38;8.30;;;;;;;8.15;40.91;98058.16;5051807;28;20128;-63
2023/02/13 12:06:38;;;;;;;11.77;8.43;;;;;;;8.06;40.85;98054.75;5054186;28;20406;-64
2023/02/13 12:09:12;;;;;;;12.80;8.05;;;;;;;7.95;40.73;98049.56;5054217;28;20064;-63
2023/02/13 12:11:45;;;;;;;12.05;8.20;;;;;;;8.08;41.24;98055.63;5054180;28;20049;-62
2023/02/13 12:14:18;;;;;;;10.63;7.97;;;;;;;8.27;40.62;98046.81;5053938;28;20060;-63
2023/02/13 12:16:50;;;;;;;13.85;7.68;;;;;;;8.30;40.88;98039.00;5053846;28;20450;-63
2023/02/13 12:19:23;;;;;;;15.90;8.23;;;;;;;8.47;41.16;98044.13;5053851;28;20045;-63
2023/02/13 12:22:09;;;;;;;11.15;7.60;;;;;;;8.44;40.05;98033.72;5053801;28;20124;-64